Thunder radar more information blitzortung!


Radar de pluja more information rain snow radar


Visita la nostra xarxa de llocs de meteo:

Template documentation
and downloads

And another site



No particular awareness of the weather is required.    There are no Weather-warnings

Pagina Historial Weather Underground text

Diari Resum Marc 18, 2016 Unitats:  Mètric    Imperial   Tant
« Previous Dia
SegĂźent Dia »
Diari Setmana Mensual Anual Personalitzada
  Maxima: Minima: Media:
Temperatura: 15.3 °C 3.6 °C 10.3 °C
Punt de rosada: 6.6 °C 0.4 °C 4.8 °C
Humitat: 83 % 53 % 69 %
Wind Speed: 21.2 km/h 0.0 km/h 3.9 km/h
RĂ fegues de vent: 21.2 km/h - -
Vent:- - SSW
Pression baro: 1019.9 hPa 1016.8 hPa -
Precipitacions: 0.0 mm    
Historical Graphs
 
 
Dades de taula per Marc 18, 2016
Temps Temperatura Punt de rosada Pression baro Vent Wind Speed RĂ fegues de vent Humitat Rainfall Rate (Hourly)
00:10 4.2 °C 1.4 °C 1019.9 hPa Calm     82 % 0.0 mm
00:20 4.2 °C 1.4 °C 1019.9 hPa Calm     82 % 0.0 mm
00:30 4.1 °C 1.4 °C 1019.9 hPa Calm     83 % 0.0 mm
00:40 4.1 °C 1.4 °C 1019.9 hPa SSE 1.6 km/h 3.2 km/h 83 % 0.0 mm
00:50 4.0 °C 1.2 °C 1019.9 hPa Calm   1.6 km/h 82 % 0.0 mm
01:00 3.8 °C 1.0 °C 1018.8 hPa Calm     82 % 0.0 mm
01:10 3.7 °C 0.9 °C 1018.8 hPa Calm     82 % 0.0 mm
01:20 3.7 °C 0.9 °C 1018.8 hPa Calm   1.6 km/h 82 % 0.0 mm
01:30 3.7 °C 1.1 °C 1019.9 hPa Calm     83 % 0.0 mm
01:40 3.6 °C 0.8 °C 1019.9 hPa NE 1.6 km/h 3.2 km/h 82 % 0.0 mm
01:50 3.6 °C 0.4 °C 1019.9 hPa West 3.2 km/h 3.2 km/h 80 % 0.0 mm
02:00 4.0 °C 1.2 °C 1019.9 hPa Calm   3.2 km/h 82 % 0.0 mm
02:10 4.0 °C 1.1 °C 1019.9 hPa SW 1.6 km/h 3.2 km/h 81 % 0.0 mm
02:20 4.2 °C 1.4 °C 1019.9 hPa Calm   3.2 km/h 82 % 0.0 mm
02:30 4.6 °C 1.8 °C 1019.9 hPa Calm   1.6 km/h 82 % 0.0 mm
02:40 5.2 °C 2.4 °C 1019.9 hPa SSE 1.6 km/h 3.2 km/h 82 % 0.0 mm
02:50 5.2 °C 2.4 °C 1019.9 hPa ENE 3.2 km/h 4.8 km/h 82 % 0.0 mm
03:00 6.0 °C 3.0 °C 1019.9 hPa NE 1.6 km/h 3.2 km/h 81 % 0.0 mm
03:10 6.3 °C 3.1 °C 1019.9 hPa NE 4.8 km/h 4.8 km/h 80 % 0.0 mm
03:20 6.6 °C 3.2 °C 1019.9 hPa NNE 1.6 km/h 4.8 km/h 79 % 0.0 mm
03:30 7.1 °C 3.5 °C 1019.9 hPa NNE 3.2 km/h 6.4 km/h 78 % 0.0 mm
03:40 7.7 °C 4.1 °C 1019.9 hPa NE 3.2 km/h 4.8 km/h 78 % 0.0 mm
03:50 7.9 °C 4.1 °C 1019.9 hPa ENE 4.8 km/h 6.4 km/h 77 % 0.0 mm
04:00 8.2 °C 4.2 °C 1019.9 hPa ENE 4.8 km/h 6.4 km/h 76 % 0.0 mm
06:40 13.6 °C 5.5 °C 1018.8 hPa SW 1.6 km/h 4.8 km/h 58 % 0.0 mm
06:50 13.3 °C 5.2 °C 1018.8 hPa SW 1.6 km/h 6.4 km/h 58 % 0.0 mm
07:00 13.3 °C 5.4 °C 1018.8 hPa SW 1.6 km/h 3.2 km/h 59 % 0.0 mm
07:10 13.3 °C 5.4 °C 1018.8 hPa SW 1.6 km/h 3.2 km/h 59 % 0.0 mm
07:20 13.7 °C 5.1 °C 1018.8 hPa SSW 4.8 km/h 9.7 km/h 56 % 0.0 mm
07:30 14.1 °C 5.2 °C 1017.8 hPa SW 4.8 km/h 9.7 km/h 55 % 0.0 mm
07:40 14.0 °C 4.8 °C 1017.8 hPa SW 4.8 km/h 12.9 km/h 54 % 0.0 mm
07:50 14.0 °C 4.8 °C 1017.8 hPa SW 8.0 km/h 11.3 km/h 54 % 0.0 mm
08:00 14.4 °C 5.2 °C 1017.8 hPa SW 9.7 km/h 9.7 km/h 54 % 0.0 mm
08:10 14.6 °C 5.1 °C 1017.8 hPa SW 9.7 km/h 16.1 km/h 53 % 0.0 mm
08:20 15.3 °C 5.8 °C 1017.8 hPa SW 9.7 km/h 12.9 km/h 53 % 0.0 mm
08:50 14.4 °C 5.2 °C 1017.8 hPa SW 12.9 km/h 16.1 km/h 54 % 0.0 mm
09:00 14.5 °C 5.6 °C 1017.8 hPa SW 4.8 km/h 17.7 km/h 55 % 0.0 mm
09:10 14.8 °C 5.8 °C 1017.8 hPa SW 9.7 km/h 16.1 km/h 55 % 0.0 mm
09:20 14.6 °C 5.7 °C 1017.8 hPa SW 4.8 km/h 17.7 km/h 55 % 0.0 mm
09:30 14.9 °C 5.7 °C 1017.8 hPa WSW 9.7 km/h 12.9 km/h 54 % 0.0 mm
09:40 14.0 °C 5.1 °C 1017.8 hPa WSW 11.3 km/h 17.7 km/h 55 % 0.0 mm
09:50 14.1 °C 5.4 °C 1017.8 hPa SW 9.7 km/h 17.7 km/h 56 % 0.0 mm
10:03 8.7 °C 4.7 °C 1019.9 hPa SW 5.6 km/h 5.6 km/h 76 % 0.0 mm
10:08 8.8 °C 4.8 °C 1019.9 hPa WNW 1.9 km/h 2.3 km/h 76 % 0.0 mm
10:10 14.0 °C 5.3 °C 1017.8 hPa SW 14.5 km/h 16.1 km/h 56 % 0.0 mm
10:13 9.2 °C 5.0 °C 1019.9 hPa WSW 5.3 km/h 5.3 km/h 75 % 0.0 mm
10:18 9.1 °C 4.7 °C 1019.9 hPa SW 5.6 km/h 5.6 km/h 74 % 0.0 mm
10:20 13.6 °C 5.2 °C 1016.8 hPa SW 9.7 km/h 12.9 km/h 57 % 0.0 mm
10:23 9.6 °C 5.0 °C 1019.9 hPa ESE 3.9 km/h 3.9 km/h 73 % 0.0 mm
10:28 10.0 °C 5.4 °C 1019.9 hPa NNE 5.6 km/h 5.6 km/h 73 % 0.0 mm
10:33 10.2 °C 5.2 °C 1019.9 hPa NE 3.9 km/h 3.9 km/h 71 % 0.0 mm
10:38 10.5 °C 5.3 °C 1019.9 hPa ENE 3.2 km/h 3.2 km/h 70 % 0.0 mm
10:40 12.8 °C 5.0 °C 1016.8 hPa SW 11.3 km/h 12.9 km/h 59 % 0.0 mm
10:43 10.8 °C 5.6 °C 1019.9 hPa ESE 7.6 km/h 7.6 km/h 70 % 0.0 mm
10:48 10.9 °C 5.7 °C 1019.9 hPa ESE 5.6 km/h 5.6 km/h 70 % 0.0 mm
10:50 12.7 °C 5.1 °C 1017.8 hPa SW 9.7 km/h 14.5 km/h 60 % 0.0 mm
10:53 11.2 °C 5.7 °C 1019.9 hPa NE 5.6 km/h 5.6 km/h 69 % 0.0 mm
10:58 11.2 °C 5.7 °C 1019.9 hPa East 5.0 km/h 5.0 km/h 69 % 0.0 mm
11:03 11.3 °C 6.0 °C 1019.9 hPa SW 3.7 km/h 3.7 km/h 70 % 0.0 mm
11:08 11.6 °C 6.1 °C 1019.9 hPa South 3.7 km/h 3.7 km/h 69 % 0.0 mm
11:10 12.2 °C 5.1 °C 1017.8 hPa SW 8.0 km/h 20.9 km/h 62 % 0.0 mm
11:13 12.1 °C 6.2 °C 1019.9 hPa South 4.2 km/h 4.2 km/h 67 % 0.0 mm
11:18 12.4 °C 6.2 °C 1019.9 hPa East 2.3 km/h   66 % 0.0 mm
11:20 12.1 °C 5.1 °C 1017.8 hPa SW 9.7 km/h 14.5 km/h 62 % 0.0 mm
11:23 12.2 °C 6.1 °C 1018.8 hPa South 5.6 km/h 5.6 km/h 66 % 0.0 mm
11:28 12.7 °C 6.5 °C 1018.8 hPa SSE 7.4 km/h 7.4 km/h 66 % 0.0 mm
11:30 12.2 °C 5.3 °C 1018.8 hPa SW 4.8 km/h 16.1 km/h 63 % 0.0 mm
11:33 13.0 °C 6.6 °C 1018.8 hPa SSE 3.9 km/h 3.9 km/h 65 % 0.0 mm
11:38 12.9 °C 6.5 °C 1019.9 hPa WSW 5.6 km/h 5.6 km/h 65 % 0.0 mm
11:40 12.0 °C 5.4 °C 1018.8 hPa WSW 4.8 km/h 6.4 km/h 64 % 0.0 mm
11:43 12.8 °C 5.9 °C 1019.9 hPa WSW 5.6 km/h 5.6 km/h 63 % 0.0 mm
11:48 12.9 °C 6.2 °C 1019.9 hPa WSW 5.6 km/h 5.6 km/h 64 % 0.0 mm
11:50 11.8 °C 5.4 °C 1017.8 hPa WSW 3.2 km/h 9.7 km/h 65 % 0.0 mm
11:53 12.8 °C 5.9 °C 1019.9 hPa NNW 3.7 km/h 3.7 km/h 63 % 0.0 mm
11:58 13.0 °C 5.9 °C 1019.9 hPa SSW 7.4 km/h 7.4 km/h 62 % 0.0 mm
12:00 11.8 °C 5.7 °C 1017.8 hPa WSW 4.8 km/h 12.9 km/h 66 % 0.0 mm
12:03 13.0 °C 4.9 °C 1019.9 hPa ESE 11.1 km/h 11.1 km/h 58 % 0.0 mm
12:08 13.3 °C 5.2 °C 1019.9 hPa SSW 9.3 km/h 9.3 km/h 58 % 0.0 mm
12:10 11.7 °C 5.8 °C 1017.8 hPa WSW 3.2 km/h 9.7 km/h 67 % 0.0 mm
12:13 13.3 °C 5.2 °C 1019.9 hPa South 3.9 km/h 3.9 km/h 58 % 0.0 mm
12:18 13.6 °C 5.2 °C 1019.9 hPa SSE 7.4 km/h 7.4 km/h 57 % 0.0 mm
12:23 13.6 °C 5.5 °C 1018.8 hPa SSW 5.6 km/h 5.6 km/h 58 % 0.0 mm
12:28 13.5 °C 5.4 °C 1018.8 hPa SW 3.7 km/h 3.7 km/h 58 % 0.0 mm
12:30 11.3 °C 5.6 °C 1017.8 hPa SW 4.8 km/h 9.7 km/h 68 % 0.0 mm
12:32 13.5 °C 5.4 °C 1018.8 hPa SW 5.6 km/h 5.6 km/h 58 % 0.0 mm
12:33 13.5 °C 5.4 °C 1018.8 hPa SW 5.6 km/h 5.6 km/h 58 % 0.0 mm
12:38 13.5 °C 5.4 °C 1018.8 hPa SW 5.6 km/h 5.6 km/h 58 % 0.0 mm
12:40 11.3 °C 5.6 °C 1017.8 hPa SW 3.2 km/h 14.5 km/h 68 % 0.0 mm
12:50 11.1 °C 5.6 °C 1017.8 hPa SW 8.0 km/h 9.7 km/h 69 % 0.0 mm
13:00 10.9 °C 5.7 °C 1017.8 hPa SW 8.0 km/h 11.3 km/h 70 % 0.0 mm
13:10 10.8 °C 5.6 °C 1017.8 hPa SW 4.8 km/h 6.4 km/h 70 % 0.0 mm
13:14 13.5 °C 5.4 °C 1018.8 hPa SW 5.6 km/h 5.6 km/h 58 % 0.0 mm
13:20 10.7 °C 5.7 °C 1017.8 hPa WSW 3.2 km/h 6.4 km/h 71 % 0.0 mm
13:30 10.7 °C 5.4 °C 1017.8 hPa WSW 4.8 km/h 4.8 km/h 70 % 0.0 mm
13:31 13.5 °C 5.4 °C 1018.8 hPa SW 5.6 km/h 5.6 km/h 58 % 0.0 mm
13:36 13.5 °C 5.4 °C 1018.8 hPa SW 5.6 km/h 5.6 km/h 58 % 0.0 mm
13:40 10.6 °C 5.6 °C 1017.8 hPa WSW 1.6 km/h 3.2 km/h 71 % 0.0 mm
13:50 10.5 °C 5.4 °C 1017.8 hPa WSW 3.2 km/h 3.2 km/h 71 % 0.0 mm
19:56 10.4 °C 5.4 °C 1017.8 hPa WSW 21.2 km/h 21.2 km/h 71 % 0.0 mm
20:01 10.3 °C 5.3 °C 1017.8 hPa SW 3.7 km/h 3.7 km/h 71 % 0.0 mm
20:06 10.3 °C 5.4 °C 1017.8 hPa SW 7.4 km/h 7.4 km/h 72 % 0.0 mm
20:11 10.2 °C 5.4 °C 1017.8 hPa WSW 3.7 km/h 3.7 km/h 72 % 0.0 mm
20:16 10.2 °C 5.4 °C 1017.8 hPa WSW 2.6 km/h   72 % 0.0 mm
20:26 10.1 °C 5.3 °C 1018.8 hPa SW 1.9 km/h   72 % 0.0 mm
20:31 10.1 °C 5.3 °C 1018.8 hPa SW 1.9 km/h 1.9 km/h 72 % 0.0 mm
20:36 10.0 °C 5.2 °C 1018.8 hPa WSW 1.9 km/h 1.9 km/h 72 % 0.0 mm
20:41 10.0 °C 5.2 °C 1018.8 hPa WSW 1.9 km/h 1.9 km/h 72 % 0.0 mm
20:46 9.9 °C 5.1 °C 1018.8 hPa Calm     72 % 0.0 mm
20:51 9.9 °C 5.1 °C 1018.8 hPa Calm     72 % 0.0 mm
20:56 9.8 °C 5.0 °C 1017.8 hPa Calm     72 % 0.0 mm
21:01 9.8 °C 5.2 °C 1017.8 hPa Calm     73 % 0.0 mm
21:06 9.7 °C 5.1 °C 1017.8 hPa Calm     73 % 0.0 mm
21:11 9.6 °C 5.0 °C 1018.8 hPa Calm     73 % 0.0 mm
21:16 9.6 °C 5.0 °C 1018.8 hPa Calm     73 % 0.0 mm
21:21 9.5 °C 4.9 °C 1018.8 hPa Calm     73 % 0.0 mm
21:26 9.4 °C 4.6 °C 1018.8 hPa WSW 3.7 km/h 3.7 km/h 72 % 0.0 mm
21:36 9.2 °C 4.6 °C 1018.8 hPa Calm     73 % 0.0 mm
21:41 9.1 °C 4.7 °C 1018.8 hPa Calm     74 % 0.0 mm
21:46 9.0 °C 4.6 °C 1018.8 hPa Calm     74 % 0.0 mm
21:51 9.0 °C 4.6 °C 1018.8 hPa Calm     74 % 0.0 mm
21:56 9.0 °C 4.6 °C 1018.8 hPa WSW 2.3 km/h 2.3 km/h 74 % 0.0 mm
22:01 9.1 °C 4.7 °C 1018.8 hPa SW 1.9 km/h 1.9 km/h 74 % 0.0 mm
22:06 9.1 °C 4.7 °C 1018.8 hPa SW 1.9 km/h   74 % 0.0 mm
22:11 9.1 °C 4.9 °C 1018.8 hPa South 1.9 km/h   75 % 0.0 mm
22:16 9.1 °C 4.9 °C 1018.8 hPa Calm     75 % 0.0 mm
22:21 9.1 °C 4.9 °C 1018.8 hPa SE 1.9 km/h   75 % 0.0 mm
22:26 9.1 °C 4.9 °C 1018.8 hPa Calm     75 % 0.0 mm
22:31 9.2 °C 5.0 °C 1018.8 hPa Calm     75 % 0.0 mm
22:36 9.2 °C 5.0 °C 1018.8 hPa SW 1.9 km/h 1.9 km/h 75 % 0.0 mm
22:41 9.3 °C 5.3 °C 1018.8 hPa Calm     76 % 0.0 mm
22:46 9.3 °C 5.1 °C 1018.8 hPa Calm     75 % 0.0 mm
22:51 9.4 °C 5.2 °C 1018.8 hPa SW 1.4 km/h   75 % 0.0 mm
22:56 9.4 °C 5.2 °C 1018.8 hPa SW 2.3 km/h 2.3 km/h 75 % 0.0 mm
23:01 9.4 °C 5.2 °C 1018.8 hPa SW 1.9 km/h   75 % 0.0 mm
23:06 9.4 °C 5.4 °C 1018.8 hPa Calm     76 % 0.0 mm
23:11 9.5 °C 5.5 °C 1018.8 hPa East 1.9 km/h   76 % 0.0 mm
23:16 9.5 °C 5.5 °C 1018.8 hPa Calm     76 % 0.0 mm
23:18 9.5 °C 5.5 °C 1018.8 hPa Calm     76 % 0.0 mm
23:23 9.5 °C 5.5 °C 1018.8 hPa Calm     76 % 0.0 mm
23:28 9.5 °C 5.5 °C 1018.8 hPa Calm     76 % 0.0 mm
23:33 9.6 °C 5.6 °C 1018.8 hPa East 1.4 km/h   76 % 0.0 mm
Meteo Sesrovires
Elogis d' Weather Underground - 3.25 mb

Guio original per  Jim McMurry - jmcmurry@mwt.net Adaptat per a la plantilla per  Wim van der Kuil - Leuven-Template.eu

Trobareu la nostra informacio del temps tambe a:

Weather Underground

AWEKAS